Time;durP1;ratioP1;P1;durP2;ratioP2;P2;SDS_P1;SDS_P2;PMS_P1;PMS_P2;Temp;Humidity;BMP_temperature;BMP_pressure;BME280_temperature;BME280_humidity;BME280_pressure;Samples;Min_cycle;Max_cycle;Signal;HPM_P1;HPM_P2
2023/09/08 00:02:07;;;;;;;5.45;4.07;;;;;;;23.96;56.95;100073.88;4861841;29;20112;-46
2023/09/08 00:04:32;;;;;;;4.25;3.75;;;;;;;23.83;57.26;100067.19;4861593;29;20069;-41
2023/09/08 00:06:58;;;;;;;4.57;3.40;;;;;;;23.69;57.41;100069.69;4861809;29;20029;-42
2023/09/08 00:09:24;;;;;;;6.07;3.88;;;;;;;23.79;57.16;100066.94;4861782;29;20045;-44
2023/09/08 00:11:49;;;;;;;7.15;4.07;;;;;;;24.00;58.27;100072.22;4861718;29;20037;-45
2023/09/08 00:14:15;;;;;;;6.78;4.63;;;;;;;24.15;58.82;100072.06;4861537;29;20490;-43
2023/09/08 00:16:42;;;;;;;6.53;4.75;;;;;;;23.80;60.44;100076.72;4875712;29;20120;-42
2023/09/08 00:19:08;;;;;;;6.65;4.57;;;;;;;23.97;60.02;100078.19;4861628;29;20033;-44
2023/09/08 00:21:34;;;;;;;8.15;5.15;;;;;;;23.80;61.09;100074.00;4861669;29;20033;-42
2023/09/08 00:24:00;;;;;;;8.20;4.63;;;;;;;23.62;61.81;100075.44;4861223;29;20036;-45
2023/09/08 00:26:26;;;;;;;6.28;4.70;;;;;;;23.66;62.06;100077.59;4861240;29;20025;-45
2023/09/08 00:28:51;;;;;;;7.05;4.57;;;;;;;23.60;61.86;100074.13;4861492;29;20037;-42
2023/09/08 00:31:17;;;;;;;6.18;4.85;;;;;;;23.39;62.35;100076.94;4861044;29;20116;-42
2023/09/08 00:33:43;;;;;;;7.20;4.70;;;;;;;23.48;61.99;100060.09;4861102;29;20041;-41
2023/09/08 00:36:09;;;;;;;8.20;4.97;;;;;;;23.62;62.04;100071.91;4860698;29;20488;-42
2023/09/08 00:38:35;;;;;;;7.18;4.72;;;;;;;23.26;63.67;100066.72;4859554;29;20065;-41
2023/09/08 00:41:00;;;;;;;8.65;5.00;;;;;;;23.42;62.58;100076.41;4861207;29;20033;-43
2023/09/08 00:43:26;;;;;;;6.68;4.60;;;;;;;23.29;63.48;100081.66;4860733;29;20029;-43
2023/09/08 00:45:54;;;;;;;8.02;5.03;;;;;;;23.44;62.85;100081.56;4861004;29;20159;-41
2023/09/08 00:48:20;;;;;;;7.93;4.90;;;;;;;23.31;63.67;100074.03;4860639;29;20033;-43
2023/09/08 00:50:46;;;;;;;8.38;5.38;;;;;;;23.07;64.90;100071.16;4860704;29;20033;-42
2023/09/08 00:53:12;;;;;;;8.93;5.32;;;;;;;23.14;64.40;100082.53;4860740;29;20108;-43
2023/09/08 00:55:39;;;;;;;6.57;5.10;;;;;;;22.94;65.52;100083.38;4860486;29;20048;-42
2023/09/08 00:58:05;;;;;;;7.80;4.95;;;;;;;23.12;64.63;100085.50;4860477;29;20037;-42
2023/09/08 01:00:32;;;;;;;9.52;5.57;;;;;;;23.15;65.62;100074.13;4860045;29;20065;-40
2023/09/08 01:02:57;;;;;;;6.85;5.30;;;;;;;23.07;65.71;100071.16;4860113;29;20044;-42
2023/09/08 01:05:23;;;;;;;9.38;5.70;;;;;;;23.09;65.63;100075.22;4860255;29;20108;-42
2023/09/08 01:07:50;;;;;;;9.88;6.00;;;;;;;23.20;65.04;100065.13;4860373;29;20433;-44
2023/09/08 01:10:16;;;;;;;9.88;5.57;;;;;;;23.11;65.61;100064.06;4860332;29;20124;-45
2023/09/08 01:12:41;;;;;;;9.02;5.47;;;;;;;23.20;65.07;100060.50;4860655;29;20431;-43
2023/09/08 01:15:07;;;;;;;7.25;5.25;;;;;;;23.12;65.87;100055.66;4860274;29;20040;-42
2023/09/08 01:17:33;;;;;;;7.68;5.60;;;;;;;22.96;66.10;100060.34;4860524;29;20037;-41
2023/09/08 01:20:23;;;;;;;7.47;5.43;;;;;;;22.84;66.62;100057.91;4860496;29;20033;-42
2023/09/08 01:22:57;;;;;;;8.23;5.65;;;;;;;22.68;67.68;100056.38;4860235;29;20049;-41
2023/09/08 01:25:24;;;;;;;8.13;5.55;;;;;;;22.86;67.12;100057.63;4860064;29;20049;-43
2023/09/08 01:27:57;;;;;;;9.98;5.57;;;;;;;22.93;67.46;100050.03;4860379;29;20041;-44
2023/09/08 01:30:25;;;;;;;8.07;5.40;;;;;;;23.03;67.19;100051.91;4853941;29;20030;-43
2023/09/08 01:32:51;;;;;;;9.65;5.28;;;;;;;22.88;67.65;100051.94;4851126;29;20081;-44
2023/09/08 01:35:17;;;;;;;8.77;5.20;;;;;;;22.82;67.82;100051.16;4849187;29;20044;-43
2023/09/08 01:37:47;;;;;;;8.93;5.38;;;;;;;22.79;67.86;100046.28;4851535;29;20033;-42
2023/09/08 01:40:13;;;;;;;9.73;5.40;;;;;;;22.64;68.64;100049.88;4854629;29;20120;-42
2023/09/08 01:42:39;;;;;;;8.73;5.30;;;;;;;22.71;68.08;100047.66;4850087;29;20109;-43
2023/09/08 01:45:06;;;;;;;7.25;5.07;;;;;;;22.59;68.73;100056.09;4856956;29;20036;-45
2023/09/08 01:47:32;;;;;;;9.07;5.57;;;;;;;22.50;68.97;100043.38;4853223;29;20484;-42
2023/09/08 01:49:58;;;;;;;8.85;4.88;;;;;;;22.62;68.32;100055.56;4849641;29;20033;-42
2023/09/08 01:52:24;;;;;;;6.78;4.55;;;;;;;22.58;68.38;100056.38;4852552;29;20409;-43
2023/09/08 01:54:50;;;;;;;8.13;5.20;;;;;;;22.63;68.00;100056.38;4859945;29;20455;-44
2023/09/08 01:57:15;;;;;;;7.35;4.70;;;;;;;22.65;68.53;100057.72;4859681;29;20029;-44
2023/09/08 01:59:41;;;;;;;7.40;5.32;;;;;;;22.65;68.34;100052.28;4860030;29;20475;-42
2023/09/08 02:02:06;;;;;;;7.32;4.88;;;;;;;22.54;68.85;100061.56;4859915;29;20486;-45
2023/09/08 02:04:32;;;;;;;7.25;5.20;;;;;;;22.43;69.17;100060.75;4859651;29;20112;-47
2023/09/08 02:06:58;;;;;;;8.13;5.25;;;;;;;22.52;69.01;100054.78;4859925;29;20380;-41
2023/09/08 02:09:31;;;;;;;8.88;5.40;;;;;;;22.12;70.91;100059.94;4859984;29;20109;-43
2023/09/08 02:11:56;;;;;;;8.80;5.20;;;;;;;22.39;69.42;100053.44;4859683;29;20090;-44
2023/09/08 02:14:22;;;;;;;6.80;4.85;;;;;;;22.47;69.29;100060.22;4859519;29;20452;-43
2023/09/08 02:16:47;;;;;;;7.68;5.25;;;;;;;22.45;69.49;100057.78;4859789;29;20065;-43
2023/09/08 02:19:12;;;;;;;6.63;4.78;;;;;;;22.48;69.19;100059.94;4859566;29;20036;-43
2023/09/08 02:21:38;;;;;;;7.07;4.80;;;;;;;22.29;69.93;100056.19;4859640;29;20120;-42
2023/09/08 02:24:03;;;;;;;7.95;4.80;;;;;;;22.20;70.67;100051.28;4859674;29;20038;-43
2023/09/08 02:26:32;;;;;;;6.72;4.95;;;;;;;22.21;70.35;100055.59;4859539;29;20032;-43
2023/09/08 02:28:57;;;;;;;9.98;5.22;;;;;;;22.05;71.11;100051.31;4859347;29;20033;-44
2023/09/08 02:31:22;;;;;;;6.78;4.80;;;;;;;22.29;69.57;100048.84;4859217;29;20057;-41
2023/09/08 02:33:48;;;;;;;6.93;5.20;;;;;;;22.27;69.69;100047.50;4859393;29;20551;-45
2023/09/08 02:36:13;;;;;;;8.00;5.22;;;;;;;22.22;70.27;100040.19;4859450;29;20459;-43
2023/09/08 02:38:38;;;;;;;7.00;4.95;;;;;;;22.33;69.75;100047.25;4859085;29;20471;-42
2023/09/08 02:41:04;;;;;;;7.93;5.30;;;;;;;22.17;70.79;100040.97;4858846;29;20037;-43
2023/09/08 02:43:29;;;;;;;6.43;4.90;;;;;;;22.00;71.70;100038.56;4859376;29;20448;-47
2023/09/08 02:45:55;;;;;;;9.50;5.30;;;;;;;21.96;71.74;100037.47;4854211;29;20018;-43
2023/09/08 02:48:20;;;;;;;9.10;5.20;;;;;;;21.91;72.49;100033.97;4840764;29;20085;-43
2023/09/08 02:50:45;;;;;;;7.18;5.20;;;;;;;22.04;72.06;100028.00;4840764;29;20018;-46
2023/09/08 02:53:12;;;;;;;7.72;5.05;;;;;;;21.87;72.64;100036.41;4840827;29;20364;-43
2023/09/08 02:55:37;;;;;;;8.18;5.70;;;;;;;21.87;72.84;100036.41;4840260;29;20048;-42
2023/09/08 02:58:03;;;;;;;8.05;5.60;;;;;;;21.96;72.71;100031.25;4858433;29;20382;-43
2023/09/08 03:00:29;;;;;;;7.90;5.70;;;;;;;22.13;72.11;100037.19;4857760;29;20054;-41
2023/09/08 03:02:54;;;;;;;8.57;5.40;;;;;;;22.78;68.66;100022.97;4858690;29;20530;-45
2023/09/08 03:05:20;;;;;;;7.18;5.57;;;;;;;23.08;67.71;100032.09;4858791;29;20376;-42
2023/09/08 03:07:48;;;;;;;8.25;5.70;;;;;;;23.19;66.90;100039.88;4858517;29;20035;-45
2023/09/08 03:10:13;;;;;;;8.57;5.85;;;;;;;23.25;66.46;100046.09;4858713;29;20469;-40
2023/09/08 03:12:39;;;;;;;9.38;6.90;;;;;;;23.31;66.54;100034.09;4858609;29;20112;-42
2023/09/08 03:15:05;;;;;;;15.60;10.52;;;;;;;23.39;66.16;100041.66;4858778;29;20184;-41
2023/09/08 03:17:30;;;;;;;12.57;8.70;;;;;;;23.43;65.85;100044.63;4858769;29;20026;-43
2023/09/08 03:19:56;;;;;;;13.05;9.98;;;;;;;23.46;65.92;100035.91;4858306;29;20108;-41
2023/09/08 03:22:21;;;;;;;11.23;8.10;;;;;;;23.48;65.69;100046.50;4858674;29;20033;-42
2023/09/08 03:24:46;;;;;;;9.63;6.50;;;;;;;23.50;65.58;100045.13;4858350;29;20366;-45
2023/09/08 03:27:12;;;;;;;10.10;5.93;;;;;;;23.51;65.59;100041.28;4858308;29;20478;-42
2023/09/08 03:29:37;;;;;;;7.57;6.13;;;;;;;23.54;65.62;100046.16;4858310;29;20470;-41
2023/09/08 03:32:03;;;;;;;9.75;6.13;;;;;;;23.53;65.47;100047.28;4858574;29;20041;-42
2023/09/08 03:34:29;;;;;;;9.63;6.10;;;;;;;23.49;65.65;100045.41;4858528;29;20025;-43
2023/09/08 03:36:54;;;;;;;16.58;6.40;;;;;;;23.33;66.35;100053.66;4858358;29;20036;-42
2023/09/08 03:39:19;;;;;;;12.15;6.20;;;;;;;23.01;67.14;100054.84;4844482;29;20056;-42
2023/09/08 03:41:45;;;;;;;8.07;6.10;;;;;;;23.00;67.34;100047.03;4839655;29;20111;-42
2023/09/08 03:44:11;;;;;;;7.50;5.25;;;;;;;22.96;66.05;100052.19;4840037;29;20395;-42
2023/09/08 03:46:36;;;;;;;10.38;6.15;;;;;;;23.11;66.66;100053.22;4847989;29;20427;-44
2023/09/08 03:49:02;;;;;;;24.20;16.33;;;;;;;23.21;66.52;100053.19;4847753;29;20029;-43
2023/09/08 03:51:28;;;;;;;16.60;11.73;;;;;;;23.19;66.56;100044.50;4850700;29;20029;-43
2023/09/08 03:53:53;;;;;;;11.85;7.85;;;;;;;23.26;66.37;100050.41;4848960;29;20125;-42
2023/09/08 03:56:20;;;;;;;10.27;6.40;;;;;;;23.13;66.43;100048.31;4856419;29;20057;-43
2023/09/08 03:58:45;;;;;;;8.65;6.50;;;;;;;23.24;66.30;100047.19;4857594;29;20623;-41
2023/09/08 04:01:11;;;;;;;9.05;5.80;;;;;;;23.29;66.16;100054.50;4850687;29;20112;-41
2023/09/08 04:03:36;;;;;;;8.30;6.25;;;;;;;23.34;66.07;100058.00;4849358;29;20105;-41
2023/09/08 04:06:02;;;;;;;8.10;6.38;;;;;;;23.46;65.91;100051.41;4855646;29;20024;-42
2023/09/08 04:08:27;;;;;;;9.18;6.40;;;;;;;23.51;65.75;100052.16;4858839;29;20065;-41
2023/09/08 04:10:52;;;;;;;9.30;6.28;;;;;;;23.51;65.39;100054.06;4855324;29;20037;-41
2023/09/08 04:13:18;;;;;;;10.68;6.47;;;;;;;23.23;66.14;100070.81;4861501;29;20049;-43
2023/09/08 04:15:43;;;;;;;9.80;6.45;;;;;;;22.56;68.61;100074.81;4861734;29;20072;-42
2023/09/08 04:18:09;;;;;;;12.05;6.85;;;;;;;23.09;66.69;100063.53;4861787;29;20108;-41
2023/09/08 04:20:34;;;;;;;9.02;6.35;;;;;;;23.23;66.41;100064.56;4861484;29;20041;-41
2023/09/08 04:22:59;;;;;;;14.43;9.68;;;;;;;23.29;66.41;100074.31;4861554;29;20061;-46
2023/09/08 04:25:25;;;;;;;18.15;9.55;;;;;;;23.36;66.44;100073.97;4861339;29;20113;-41
2023/09/08 04:27:50;;;;;;;8.93;6.60;;;;;;;23.51;65.73;100062.22;4861756;29;20033;-43
2023/09/08 04:30:17;;;;;;;8.32;6.60;;;;;;;23.63;65.38;100059.97;4861333;29;20439;-41
2023/09/08 04:32:43;;;;;;;7.80;5.93;;;;;;;23.83;64.26;100060.94;4860867;29;20037;-42
2023/09/08 04:35:09;;;;;;;9.25;6.22;;;;;;;23.92;63.91;100076.34;4861389;29;20030;-43
2023/09/08 04:37:34;;;;;;;24.05;14.93;;;;;;;23.99;63.28;100076.03;4861856;29;20065;-43
2023/09/08 04:40:00;;;;;;;65.18;41.92;;;;;;;24.12;62.95;100083.53;4861328;29;20033;-41
2023/09/08 04:42:25;;;;;;;15.50;11.38;;;;;;;24.26;62.78;100080.94;4861260;29;20044;-42
2023/09/08 04:44:51;;;;;;;11.15;7.40;;;;;;;24.45;62.26;100074.78;4861342;29;20031;-41
2023/09/08 04:47:16;;;;;;;8.90;6.15;;;;;;;24.62;61.54;100085.22;4860694;29;20025;-42
2023/09/08 04:49:42;;;;;;;14.50;9.13;;;;;;;24.55;61.37;100091.84;4860386;29;20116;-42
2023/09/08 04:52:07;;;;;;;36.35;27.50;;;;;;;24.67;61.50;100085.97;4860548;29;20036;-45
2023/09/08 04:54:32;;;;;;;33.40;22.65;;;;;;;24.84;60.73;100090.97;4861062;29;20033;-42
2023/09/08 04:56:58;;;;;;;25.42;18.00;;;;;;;24.85;60.58;100080.91;4860557;29;20395;-42
2023/09/08 04:59:25;;;;;;;18.33;13.35;;;;;;;24.81;59.65;100086.13;4861123;29;20086;-41
2023/09/08 05:01:50;;;;;;;13.25;8.65;;;;;;;24.89;59.01;100092.84;4861304;29;20037;-42
2023/09/08 05:04:18;;;;;;;14.02;7.75;;;;;;;24.52;59.90;100087.00;4860855;29;20104;-40
2023/09/08 05:06:43;;;;;;;9.68;6.95;;;;;;;24.78;59.34;100090.22;4860401;29;20513;-41
2023/09/08 05:09:09;;;;;;;8.70;6.07;;;;;;;24.24;60.88;100085.88;4860587;29;20074;-42
2023/09/08 05:11:34;;;;;;;10.88;6.00;;;;;;;24.10;61.71;100095.78;4860967;29;20116;-42
2023/09/08 05:13:59;;;;;;;9.07;5.65;;;;;;;24.22;60.89;100093.50;4860674;29;20029;-40
2023/09/08 05:16:39;;;;;;;28.20;19.23;;;;;;;24.44;60.39;100087.56;4860568;29;20025;-42
2023/09/08 05:19:05;;;;;;;13.68;10.88;;;;;;;24.59;60.29;100097.50;4860370;29;20033;-42
2023/09/08 05:21:32;;;;;;;9.82;6.35;;;;;;;24.76;59.92;100091.63;4860452;29;20475;-44
2023/09/08 05:23:57;;;;;;;9.13;6.22;;;;;;;24.84;59.49;100095.59;4859317;29;20467;-42
2023/09/08 05:26:23;;;;;;;9.23;6.38;;;;;;;25.40;57.56;100096.81;4860182;29;20128;-42
2023/09/08 05:28:48;;;;;;;22.85;16.17;;;;;;;25.38;57.55;100096.31;4860233;29;20112;-43
2023/09/08 05:31:13;;;;;;;9.13;6.78;;;;;;;25.49;57.49;100095.91;4859038;29;20029;-42
2023/09/08 05:33:39;;;;;;;8.43;5.82;;;;;;;25.74;56.37;100097.41;4860053;29;20029;-42
2023/09/08 05:36:04;;;;;;;8.77;6.00;;;;;;;26.12;55.17;100096.56;4860203;29;20041;-43
2023/09/08 05:38:30;;;;;;;9.48;5.70;;;;;;;26.24;54.82;100096.09;4860299;29;20060;-42
2023/09/08 05:40:56;;;;;;;8.20;5.47;;;;;;;26.54;53.94;100102.94;4873896;29;20486;-45
2023/09/08 05:43:24;;;;;;;8.93;5.63;;;;;;;26.60;53.75;100103.66;4860104;29;20033;-44
2023/09/08 05:45:50;;;;;;;9.55;5.63;;;;;;;26.84;51.98;100115.19;4860226;29;20057;-44
2023/09/08 05:48:16;;;;;;;7.78;5.35;;;;;;;27.09;50.82;100113.88;4860190;29;20117;-43
2023/09/08 05:50:41;;;;;;;8.55;5.18;;;;;;;26.97;50.41;100116.31;4859724;29;20029;-42
2023/09/08 05:53:07;;;;;;;9.05;5.13;;;;;;;26.89;50.51;100115.09;4855094;29;20440;-45
2023/09/08 05:55:32;;;;;;;8.63;4.95;;;;;;;27.12;50.06;100126.09;4843868;29;20033;-43
2023/09/08 05:57:58;;;;;;;7.63;4.97;;;;;;;27.39;49.39;100122.53;4859638;29;20061;-42
2023/09/08 06:00:23;;;;;;;7.35;5.10;;;;;;;27.52;48.96;100120.91;4846147;29;20058;-41
2023/09/08 06:02:48;;;;;;;7.53;5.07;;;;;;;27.62;49.24;100119.88;4852537;29;20025;-43
2023/09/08 06:05:14;;;;;;;6.38;4.93;;;;;;;27.96;48.50;100124.81;4859153;29;20406;-42
2023/09/08 06:07:39;;;;;;;9.70;5.60;;;;;;;28.30;47.77;100112.50;4858974;29;20026;-43
2023/09/08 06:10:05;;;;;;;7.40;5.25;;;;;;;28.58;46.61;100120.56;4858932;29;20034;-44
2023/09/08 06:12:30;;;;;;;8.98;5.95;;;;;;;28.76;46.10;100116.75;4859183;29;20025;-42
2023/09/08 06:14:56;;;;;;;8.68;5.60;;;;;;;28.96;45.58;100120.88;4858732;29;20029;-43
2023/09/08 06:17:21;;;;;;;14.70;6.50;;;;;;;29.12;45.13;100123.97;4858911;29;20046;-42
2023/09/08 06:19:47;;;;;;;10.25;6.82;;;;;;;29.27;44.93;100125.47;4858507;29;20041;-44
2023/09/08 06:22:12;;;;;;;7.82;5.35;;;;;;;29.39;44.64;100127.59;4858672;29;20037;-45
2023/09/08 06:24:38;;;;;;;7.57;5.10;;;;;;;29.39;44.07;100131.13;4858588;29;20034;-42
2023/09/08 06:27:03;;;;;;;6.60;5.13;;;;;;;29.70;43.67;100137.59;4853957;29;20030;-43
2023/09/08 06:29:29;;;;;;;7.68;5.13;;;;;;;29.90;43.50;100136.19;4858850;29;20467;-44
2023/09/08 06:31:54;;;;;;;8.63;5.15;;;;;;;30.00;42.94;100142.13;4858400;29;20462;-42
2023/09/08 06:34:22;;;;;;;7.35;4.60;;;;;;;30.10;41.64;100126.47;4842249;29;20076;-44
2023/09/08 06:36:47;;;;;;;7.95;4.70;;;;;;;30.52;41.45;100143.19;4840489;29;20117;-45
2023/09/08 06:39:13;;;;;;;7.55;4.53;;;;;;;30.68;41.01;100144.28;4840507;29;20278;-42
2023/09/08 06:41:38;;;;;;;5.60;4.50;;;;;;;30.88;40.50;100141.91;4839936;29;20384;-40
2023/09/08 06:44:04;;;;;;;6.55;4.22;;;;;;;31.09;39.99;100140.06;4839917;29;20041;-42
2023/09/08 06:46:30;;;;;;;4.68;4.10;;;;;;;31.81;38.53;100145.56;4839909;29;20090;-44
2023/09/08 06:48:55;;;;;;;6.32;4.15;;;;;;;31.55;38.47;100146.59;4838728;29;20034;-42
2023/09/08 06:51:20;;;;;;;5.72;4.40;;;;;;;31.21;39.59;100149.56;4850341;29;20036;-42
2023/09/08 06:53:55;;;;;;;7.25;4.30;;;;;;;31.21;39.47;100149.56;4858266;29;20036;-47
2023/09/08 06:56:20;;;;;;;8.48;4.55;;;;;;;31.47;38.90;100150.22;4852919;29;20037;-42
2023/09/08 06:58:46;;;;;;;5.90;4.57;;;;;;;31.52;38.96;100149.19;4850144;29;20380;-43
2023/09/08 07:01:11;;;;;;;5.53;4.60;;;;;;;31.68;38.88;100158.47;4857252;29;20044;-42
2023/09/08 07:03:37;;;;;;;6.13;4.40;;;;;;;31.53;38.94;100153.56;4857191;29;20144;-46
2023/09/08 07:06:03;;;;;;;6.97;4.10;;;;;;;31.87;38.29;100158.00;4858011;29;20086;-42
2023/09/08 07:08:29;;;;;;;6.38;4.10;;;;;;;31.91;38.20;100163.59;4863633;29;20088;-45
2023/09/08 07:10:54;;;;;;;10.70;4.40;;;;;;;31.86;38.73;100159.13;4874350;29;20043;-44
2023/09/08 07:13:19;;;;;;;6.05;4.35;;;;;;;32.11;37.67;100164.75;4847890;29;20076;-43
2023/09/08 07:15:45;;;;;;;6.93;4.10;;;;;;;33.07;36.51;100149.88;4839482;29;20030;-43
2023/09/08 07:18:10;;;;;;;5.03;3.88;;;;;;;33.16;36.39;100145.09;4839654;29;20030;-42
2023/09/08 07:20:36;;;;;;;6.13;4.00;;;;;;;33.06;35.83;100145.53;4839241;29;20033;-42
2023/09/08 07:23:01;;;;;;;5.95;3.60;;;;;;;32.91;34.85;100139.56;4849412;29;20025;-42
2023/09/08 07:25:26;;;;;;;6.13;3.60;;;;;;;32.65;33.38;100152.84;4858056;29;20514;-42
2023/09/08 07:27:53;;;;;;;4.45;3.42;;;;;;;32.55;34.26;100148.56;4858412;29;20025;-43
2023/09/08 07:30:19;;;;;;;3.90;3.20;;;;;;;32.38;34.55;100149.56;4858048;29;20044;-43
2023/09/08 07:32:45;;;;;;;5.65;3.75;;;;;;;32.54;34.24;100145.03;4855152;29;20018;-42
2023/09/08 07:35:14;;;;;;;6.22;3.83;;;;;;;32.53;34.03;100142.59;4839706;29;20407;-42
2023/09/08 07:37:42;;;;;;;4.65;3.65;;;;;;;32.31;34.07;100146.56;4840001;29;20395;-43
2023/09/08 07:40:11;;;;;;;6.03;3.60;;;;;;;32.29;34.34;100146.09;4840164;29;20021;-42
2023/09/08 07:42:36;;;;;;;9.55;3.88;;;;;;;32.84;33.19;100130.25;4839781;29;20030;-44
2023/09/08 07:45:02;;;;;;;5.22;3.70;;;;;;;32.90;32.45;100134.38;4839804;29;20045;-42
2023/09/08 07:47:27;;;;;;;5.65;3.58;;;;;;;32.62;33.02;100126.81;4840982;29;20074;-41
2023/09/08 07:50:31;;;;;;;6.07;3.33;;;;;;;32.75;32.16;100127.63;4844229;29;20079;-43
2023/09/08 07:52:57;;;;;;;6.35;3.40;;;;;;;32.12;32.83;100127.81;4860936;29;20033;-44
2023/09/08 07:55:23;;;;;;;5.07;3.30;;;;;;;32.32;32.38;100131.66;4860402;29;20032;-43
2023/09/08 07:57:50;;;;;;;5.70;3.10;;;;;;;31.42;32.38;100122.88;4860449;29;20036;-42
2023/09/08 08:00:17;;;;;;;3.55;3.15;;;;;;;31.41;33.03;100131.47;4860561;29;20064;-41
2023/09/08 08:02:45;;;;;;;4.22;3.03;;;;;;;32.01;31.87;100115.63;4861533;29;20467;-44
2023/09/08 08:05:10;;;;;;;3.88;2.63;;;;;;;31.55;31.85;100123.78;4862207;29;20030;-43
2023/09/08 08:07:36;;;;;;;5.18;3.60;;;;;;;31.42;32.92;100122.88;4861798;29;20021;-44
2023/09/08 08:10:01;;;;;;;5.65;3.65;;;;;;;30.79;34.04;100122.75;4861508;29;20097;-42
2023/09/08 08:12:27;;;;;;;6.47;3.47;;;;;;;30.05;34.77;100127.47;4861567;29;20025;-43
2023/09/08 08:14:52;;;;;;;5.25;3.42;;;;;;;30.27;35.42;100117.41;4861349;29;20025;-43
2023/09/08 08:17:19;;;;;;;4.38;3.13;;;;;;;30.38;34.87;100126.94;4861403;29;20026;-43
2023/09/08 08:19:45;;;;;;;5.45;3.33;;;;;;;30.26;35.51;100110.31;4861520;29;20048;-42
2023/09/08 08:22:10;;;;;;;6.85;3.70;;;;;;;30.76;34.07;100113.22;4861825;29;20022;-44
2023/09/08 08:24:36;;;;;;;3.75;3.08;;;;;;;30.79;33.70;100107.06;4861794;29;20025;-42
2023/09/08 08:27:02;;;;;;;4.68;2.90;;;;;;;30.87;32.81;100112.84;4861496;29;20466;-41
2023/09/08 08:29:28;;;;;;;4.75;3.00;;;;;;;30.46;33.24;100115.09;4862226;29;20026;-45
2023/09/08 08:31:54;;;;;;;5.22;3.00;;;;;;;31.07;32.57;100111.28;4861297;29;20052;-44
2023/09/08 08:34:19;;;;;;;4.57;3.15;;;;;;;30.98;33.35;100105.88;4861394;29;20032;-43
2023/09/08 08:36:45;;;;;;;4.97;3.15;;;;;;;31.12;32.89;100109.16;4861563;29;20053;-43
2023/09/08 08:39:10;;;;;;;3.33;2.88;;;;;;;31.23;32.13;100109.59;4861193;29;20479;-44
2023/09/08 08:41:39;;;;;;;4.28;2.95;;;;;;;30.78;31.96;100102.69;4861347;29;20068;-43
2023/09/08 08:44:06;;;;;;;;;;;;;;;30.50;32.71;100107.00;4862109;29;20375;-43
2023/09/08 08:46:33;;;;;;;4.28;2.97;;;;;;;30.92;32.74;100099.75;4861150;29;20317;-45
2023/09/08 08:49:01;;;;;;;3.58;2.95;;;;;;;31.22;33.06;100090.69;4861275;29;20440;-47
2023/09/08 08:51:29;;;;;;;5.28;3.22;;;;;;;31.59;32.28;100101.91;4861326;29;20036;-44
2023/09/08 08:53:55;;;;;;;3.33;2.90;;;;;;;31.29;31.06;100096.44;4861009;29;20033;-43
2023/09/08 08:56:20;;;;;;;4.75;3.13;;;;;;;30.37;32.91;100106.91;4861397;29;20124;-44
2023/09/08 08:58:46;;;;;;;5.43;2.88;;;;;;;29.74;33.69;100091.97;4859874;29;20132;-43
2023/09/08 09:01:12;;;;;;;4.25;2.97;;;;;;;29.59;33.14;100110.50;4861251;29;20116;-44
2023/09/08 09:03:41;;;;;;;4.57;3.03;;;;;;;29.73;33.47;100098.59;4858946;29;20101;-46
2023/09/08 09:06:06;;;;;;;3.40;3.00;;;;;;;30.25;32.46;100112.22;4860627;29;20057;-42
2023/09/08 09:08:33;;;;;;;3.63;2.90;;;;;;;30.07;32.46;100094.22;4860218;29;20063;-41
2023/09/08 09:10:58;;;;;;;4.45;2.75;;;;;;;30.75;32.09;100083.34;4860545;29;20053;-44
2023/09/08 09:13:24;;;;;;;3.92;2.80;;;;;;;31.05;30.51;100097.88;4859946;29;20419;-43
2023/09/08 09:15:50;;;;;;;6.45;2.67;;;;;;;30.94;30.43;100082.94;4859842;29;20025;-44
2023/09/08 09:18:15;;;;;;;3.55;2.45;;;;;;;31.01;31.15;100087.91;4859937;29;20021;-40
2023/09/08 09:20:41;;;;;;;6.25;2.95;;;;;;;30.72;31.64;100084.00;4859844;29;20419;-43
2023/09/08 09:23:07;;;;;;;4.05;2.72;;;;;;;30.33;31.93;100083.19;4859970;29;20072;-41
2023/09/08 09:25:32;;;;;;;3.92;3.13;;;;;;;30.56;31.92;100086.50;4859932;29;20554;-42
2023/09/08 09:28:02;;;;;;;3.60;2.90;;;;;;;30.70;31.42;100091.75;4859765;29;20038;-43
2023/09/08 09:30:46;;;;;;;4.40;2.70;;;;;;;31.43;29.71;100085.19;4859988;29;20032;-43
2023/09/08 09:33:12;;;;;;;5.43;2.65;;;;;;;30.95;31.02;100079.06;4859992;29;20368;-42
2023/09/08 09:35:43;;;;;;;5.25;2.80;;;;;;;30.76;31.15;100072.00;4859979;29;20045;-45
2023/09/08 09:38:09;;;;;;;3.20;2.58;;;;;;;30.25;31.06;100071.06;4859745;29;20056;-44
2023/09/08 09:40:34;;;;;;;4.60;2.85;;;;;;;30.67;30.94;100075.94;4859792;29;20033;-43
2023/09/08 09:43:00;;;;;;;4.60;2.80;;;;;;;31.55;29.70;100075.09;4859370;29;20415;-42
2023/09/08 09:45:26;;;;;;;6.78;2.95;;;;;;;31.51;29.89;100073.34;4859447;29;20066;-45
2023/09/08 09:47:51;;;;;;;3.88;2.70;;;;;;;31.98;29.32;100062.06;4859634;29;20117;-43
2023/09/08 09:50:29;;;;;;;5.18;2.80;;;;;;;32.28;28.68;100051.69;4859677;29;20117;-42
2023/09/08 09:52:58;;;;;;;5.00;2.75;;;;;;;31.96;29.72;100056.88;4860172;29;20033;-43
2023/09/08 09:55:23;;;;;;;3.22;2.72;;;;;;;31.83;29.49;100058.00;4860059;29;20661;-44
2023/09/08 09:57:49;;;;;;;3.13;2.83;;;;;;;31.89;29.79;100053.06;4860758;29;20057;-46
2023/09/08 10:00:15;;;;;;;3.10;2.60;;;;;;;32.06;29.20;100052.13;4860268;29;20068;-41
2023/09/08 10:02:41;;;;;;;4.25;2.80;;;;;;;32.46;29.21;100049.56;4860213;29;20045;-44
2023/09/08 10:05:13;;;;;;;5.82;3.00;;;;;;;32.68;28.52;100053.00;4860070;29;20486;-44
2023/09/08 10:07:40;;;;;;;3.67;2.85;;;;;;;33.06;28.09;100049.84;4859957;29;20059;-46
2023/09/08 10:10:06;;;;;;;5.00;2.65;;;;;;;32.44;27.89;100032.53;4859870;29;20033;-46
2023/09/08 10:12:35;;;;;;;5.00;3.28;;;;;;;32.29;28.26;100044.25;4859748;29;20021;-42
2023/09/08 10:15:03;;;;;;;3.53;2.42;;;;;;;31.69;28.69;100028.03;4859700;29;20036;-45
2023/09/08 10:17:30;;;;;;;4.78;2.53;;;;;;;32.01;28.31;100025.59;4858693;29;20096;-44
2023/09/08 10:19:59;;;;;;;4.28;2.70;;;;;;;32.75;27.58;100027.63;4859947;29;20068;-44
2023/09/08 10:22:30;;;;;;;4.30;2.70;;;;;;;32.53;28.16;100016.72;4860192;29;20060;-43
2023/09/08 10:24:59;;;;;;;4.65;2.67;;;;;;;32.41;28.23;100018.69;4859576;29;20144;-43
2023/09/08 10:27:26;;;;;;;3.35;2.65;;;;;;;32.97;28.34;100007.06;4859906;29;20053;-41
2023/09/08 10:29:52;;;;;;;3.72;3.00;;;;;;;33.61;27.64;100008.91;4858833;29;20463;-43
2023/09/08 10:32:19;;;;;;;3.22;2.58;;;;;;;34.02;25.95;100000.53;4857404;29;20109;-42
2023/09/08 10:34:46;;;;;;;3.60;2.70;;;;;;;33.88;26.24;100004.53;4858619;29;20037;-43
2023/09/08 10:37:19;;;;;;;3.28;2.60;;;;;;;33.29;26.59;100000.53;4859366;29;20097;-44
2023/09/08 10:39:45;;;;;;;3.92;2.63;;;;;;;33.03;26.84;100011.16;4858938;29;20511;-43
2023/09/08 10:42:16;;;;;;;2.90;2.50;;;;;;;32.13;27.32;99997.31;4859391;29;20033;-43
2023/09/08 10:45:13;;;;;;;3.78;2.50;;;;;;;31.87;27.91;100008.59;4859381;29;20459;-43
2023/09/08 10:47:56;;;;;;;4.60;2.58;;;;;;;31.77;28.01;99998.84;4858604;29;20029;-44
2023/09/08 10:50:38;;;;;;;3.30;2.60;;;;;;;32.07;27.95;99985.72;4858894;29;20439;-41
2023/09/08 10:53:12;;;;;;;4.25;2.50;;;;;;;32.63;27.72;99993.44;4859269;29;20057;-42
2023/09/08 10:55:51;;;;;;;3.40;2.55;;;;;;;32.76;27.66;99988.72;4858654;29;20034;-46
2023/09/08 10:58:40;;;;;;;4.00;2.60;;;;;;;33.05;26.73;99986.81;4858671;29;20041;-43
2023/09/08 11:01:06;;;;;;;4.07;2.70;;;;;;;32.98;26.85;99981.91;4858914;29;20048;-47
2023/09/08 11:03:37;;;;;;;3.80;2.90;;;;;;;32.56;27.67;99976.69;4858830;29;20429;-45
2023/09/08 11:06:03;;;;;;;5.30;2.90;;;;;;;32.54;27.26;99982.53;4858439;29;20029;-45
2023/09/08 11:08:29;;;;;;;2.92;2.63;;;;;;;32.64;26.89;99970.25;4858343;29;20035;-43
2023/09/08 11:10:56;;;;;;;4.60;2.70;;;;;;;31.87;28.39;99962.66;4858437;29;20120;-45
2023/09/08 11:13:21;;;;;;;5.00;2.70;;;;;;;32.59;26.98;99964.19;4858224;29;20059;-43
2023/09/08 11:15:47;;;;;;;3.60;2.53;;;;;;;32.19;27.75;99951.91;4858144;29;20558;-44
2023/09/08 11:18:12;;;;;;;4.75;2.60;;;;;;;31.81;28.24;99955.75;4858453;29;20033;-42
2023/09/08 11:20:38;;;;;;;3.00;2.70;;;;;;;31.55;28.21;99962.34;4858340;29;20068;-43
2023/09/08 11:23:04;;;;;;;3.40;2.63;;;;;;;31.47;28.37;99960.50;4858137;29;20395;-44